createdAt,value
2022-11-16T00:02:22.498Z,77.00
2022-11-16T00:04:50.333Z,76.87
2022-11-16T00:07:18.086Z,79.99
2022-11-16T00:09:46.113Z,81.47
2022-11-16T00:12:13.643Z,82.78
2022-11-16T00:14:42.964Z,80.93
2022-11-16T00:17:10.579Z,78.98
2022-11-16T00:19:38.436Z,78.67
2022-11-16T00:22:06.238Z,77.38
2022-11-16T00:24:34.711Z,76.99
2022-11-16T00:27:02.135Z,77.09
2022-11-16T00:29:30.027Z,76.59
2022-11-16T00:31:59.051Z,76.53
2022-11-16T00:34:27.080Z,76.86
2022-11-16T00:36:54.666Z,77.61
2022-11-16T00:39:22.508Z,78.05
2022-11-16T00:41:50.672Z,79.86
2022-11-16T00:44:18.554Z,81.93
2022-11-16T00:46:46.147Z,80.67
2022-11-16T00:49:15.776Z,80.59
2022-11-16T00:51:43.212Z,81.18
2022-11-16T00:54:11.755Z,81.63
2022-11-16T00:56:39.433Z,81.11
2022-11-16T00:59:07.667Z,80.61
2022-11-16T01:01:35.245Z,79.65
2022-11-16T01:04:03.363Z,80.04
2022-11-16T01:06:32.750Z,79.24
2022-11-16T01:09:03.545Z,78.89
2022-11-16T01:11:31.281Z,78.64
2022-11-16T01:13:59.472Z,78.99
2022-11-16T01:16:26.895Z,79.58
2022-11-16T01:18:55.645Z,79.30
2022-11-16T01:21:23.726Z,79.10
2022-11-16T01:23:53.357Z,78.86
2022-11-16T01:26:20.992Z,78.51
2022-11-16T01:28:49.219Z,78.42
2022-11-16T01:31:16.634Z,78.52
2022-11-16T01:33:44.466Z,78.27
2022-11-16T01:36:13.600Z,78.46
2022-11-16T01:38:42.648Z,77.75
2022-11-16T01:41:13.956Z,77.87
2022-11-16T01:43:57.232Z,77.74
2022-11-16T01:46:25.692Z,78.13
2022-11-16T01:49:00.711Z,78.79
2022-11-16T01:51:29.083Z,78.56
2022-11-16T01:53:59.268Z,77.89
2022-11-16T01:56:31.729Z,78.67
2022-11-16T01:58:59.735Z,78.91
2022-11-16T02:01:27.386Z,78.92
2022-11-16T02:03:55.238Z,78.88
2022-11-16T02:06:32.949Z,79.30
2022-11-16T02:09:20.054Z,79.10
2022-11-16T02:12:17.561Z,78.67
2022-11-16T02:15:03.237Z,78.72
2022-11-16T02:17:39.768Z,78.94
2022-11-16T02:20:36.288Z,78.88
2022-11-16T02:23:45.287Z,78.04
2022-11-16T02:26:32.332Z,78.81
2022-11-16T02:29:14.368Z,78.19
2022-11-16T02:31:49.678Z,79.22
2022-11-16T02:34:19.482Z,78.98
2022-11-16T02:36:50.201Z,77.73
2022-11-16T02:39:21.734Z,78.03
2022-11-16T02:41:50.993Z,79.35
2022-11-16T02:44:23.126Z,79.94
2022-11-16T02:47:01.890Z,79.80
2022-11-16T02:49:31.331Z,80.55
2022-11-16T02:51:59.735Z,80.68
2022-11-16T02:54:30.259Z,80.72
2022-11-16T02:57:24.123Z,80.24
2022-11-16T02:59:56.692Z,80.40
2022-11-16T03:02:29.810Z,80.32
2022-11-16T03:05:01.821Z,80.51
2022-11-16T03:07:32.182Z,79.78
2022-11-16T03:10:00.738Z,80.65
2022-11-16T03:12:32.723Z,80.42
2022-11-16T03:15:05.185Z,80.03
2022-11-16T03:17:38.174Z,79.70
2022-11-16T03:20:07.582Z,79.56
2022-11-16T03:22:39.510Z,79.26
2022-11-16T03:25:09.781Z,78.68
2022-11-16T03:27:41.614Z,78.54
2022-11-16T03:30:13.089Z,78.67
2022-11-16T03:32:45.990Z,78.95
2022-11-16T03:35:19.553Z,79.21
2022-11-16T03:37:49.216Z,79.47
2022-11-16T03:40:18.411Z,79.71
2022-11-16T03:42:47.768Z,80.24
2022-11-16T03:45:18.931Z,80.40
2022-11-16T03:47:47.156Z,80.49
2022-11-16T03:50:15.086Z,80.26
2022-11-16T03:52:42.967Z,80.14
2022-11-16T03:55:10.319Z,80.48
2022-11-16T03:57:38.095Z,81.10
2022-11-16T04:00:07.210Z,82.58
2022-11-16T04:02:36.327Z,82.41
2022-11-16T04:05:03.966Z,83.01
2022-11-16T04:07:31.747Z,82.88
2022-11-16T04:09:59.270Z,82.53
2022-11-16T04:12:27.776Z,82.08
2022-11-16T04:14:55.247Z,81.99
2022-11-16T04:17:25.130Z,81.75
2022-11-16T04:19:57.943Z,82.32
2022-11-16T04:22:30.946Z,82.37
2022-11-16T04:25:05.301Z,82.68
2022-11-16T04:27:33.139Z,82.86
2022-11-16T04:30:02.227Z,83.78
2022-11-16T04:32:30.148Z,84.50
2022-11-16T04:34:59.285Z,84.38
2022-11-16T04:37:26.923Z,84.64
2022-11-16T04:39:54.271Z,84.80
2022-11-16T04:42:22.280Z,84.29
2022-11-16T04:44:49.690Z,84.19
2022-11-16T04:47:17.518Z,84.25
2022-11-16T04:49:44.917Z,84.66
2022-11-16T04:52:14.094Z,84.75
2022-11-16T04:54:41.534Z,85.17
2022-11-16T04:57:09.569Z,85.63
2022-11-16T04:59:37.134Z,85.38
2022-11-16T05:02:05.244Z,85.40
2022-11-16T05:04:32.763Z,85.70
2022-11-16T05:07:00.778Z,86.02
2022-11-16T05:09:29.689Z,86.08
2022-11-16T05:11:57.798Z,85.01
2022-11-16T05:14:25.463Z,85.87
2022-11-16T05:16:53.355Z,85.22
2022-11-16T05:19:20.801Z,85.49
2022-11-16T05:21:48.837Z,86.04
2022-11-16T05:24:16.156Z,85.61
2022-11-16T05:26:45.659Z,85.70
2022-11-16T05:29:13.101Z,85.27
2022-11-16T05:31:41.125Z,85.14
2022-11-16T05:34:09.287Z,84.92
2022-11-16T05:36:37.253Z,85.54
2022-11-16T05:39:05.446Z,85.25
2022-11-16T05:41:33.905Z,84.80
2022-11-16T05:44:02.719Z,84.61
2022-11-16T05:46:30.986Z,85.60
2022-11-16T05:48:58.699Z,85.69
2022-11-16T05:51:26.536Z,86.35
2022-11-16T05:53:53.923Z,86.93
2022-11-16T05:56:21.893Z,86.31
2022-11-16T05:58:49.703Z,86.50
2022-11-16T06:01:19.070Z,87.29
2022-11-16T06:03:46.509Z,86.69
2022-11-16T06:06:14.575Z,87.11
2022-11-16T06:08:42.444Z,86.94
2022-11-16T06:11:13.071Z,86.11
2022-11-16T06:13:40.603Z,85.39
2022-11-16T06:16:08.967Z,85.14
2022-11-16T06:18:40.248Z,86.23
2022-11-16T06:21:08.853Z,86.37
2022-11-16T06:23:36.217Z,86.58
2022-11-16T06:26:05.161Z,86.09
2022-11-16T06:28:33.464Z,85.50
2022-11-16T06:31:02.238Z,85.41
2022-11-16T06:33:33.316Z,85.10
2022-11-16T06:36:03.114Z,85.24
2022-11-16T06:38:30.701Z,85.83
2022-11-16T06:40:59.072Z,85.15
2022-11-16T06:43:27.059Z,84.91
2022-11-16T06:45:57.066Z,84.36
2022-11-16T06:48:24.737Z,84.71
2022-11-16T06:50:53.091Z,84.23
2022-11-16T06:53:27.545Z,84.39
2022-11-16T06:56:01.319Z,84.23
2022-11-16T06:58:29.855Z,83.56
2022-11-16T07:00:57.779Z,83.49
2022-11-16T07:03:25.560Z,83.32
2022-11-16T07:05:53.377Z,82.64
2022-11-16T07:08:22.183Z,82.75
2022-11-16T07:10:50.242Z,82.92
2022-11-16T07:13:17.684Z,84.02
2022-11-16T07:15:45.517Z,85.00
2022-11-16T07:18:12.943Z,85.17
2022-11-16T07:20:40.678Z,84.89
2022-11-16T07:23:12.903Z,85.19
2022-11-16T07:25:43.897Z,85.34
2022-11-16T07:28:11.250Z,85.44
2022-11-16T07:30:39.107Z,85.49
2022-11-16T07:33:06.473Z,85.24
2022-11-16T07:35:35.018Z,85.73
2022-11-16T07:38:03.179Z,85.06
2022-11-16T07:40:31.106Z,85.03
2022-11-16T07:43:00.045Z,85.30
2022-11-16T07:45:27.865Z,84.77
2022-11-16T07:47:55.330Z,84.61
2022-11-16T07:50:23.615Z,84.52
2022-11-16T07:52:50.890Z,84.91
2022-11-16T07:55:18.774Z,85.19
2022-11-16T07:57:51.912Z,85.70
2022-11-16T08:00:22.760Z,85.71
2022-11-16T08:02:50.072Z,86.04
2022-11-16T08:05:17.886Z,85.04
2022-11-16T08:07:45.337Z,85.39
2022-11-16T08:10:13.235Z,84.99
2022-11-16T08:12:40.732Z,84.29
2022-11-16T08:15:09.210Z,84.13
2022-11-16T08:17:38.063Z,83.93
2022-11-16T08:20:07.047Z,83.41
2022-11-16T08:22:34.430Z,83.08
2022-11-16T08:25:02.362Z,82.62
2022-11-16T08:27:30.939Z,82.38
2022-11-16T08:29:59.352Z,82.15
2022-11-16T08:32:26.753Z,82.25
2022-11-16T08:34:56.270Z,82.40
2022-11-16T08:37:26.428Z,82.45
2022-11-16T08:39:54.576Z,82.19
2022-11-16T08:42:22.098Z,81.52
2022-11-16T08:44:50.206Z,81.98
2022-11-16T08:47:18.020Z,81.93
2022-11-16T08:49:49.857Z,81.71
2022-11-16T08:52:18.980Z,81.86
2022-11-16T08:54:46.878Z,82.04
2022-11-16T08:57:14.303Z,81.69
2022-11-16T08:59:42.115Z,81.50
2022-11-16T09:02:09.964Z,81.57
2022-11-16T09:04:37.938Z,82.11
2022-11-16T09:07:08.330Z,82.94
2022-11-16T09:09:37.974Z,83.37
2022-11-16T09:12:05.925Z,83.27
2022-11-16T09:14:33.675Z,83.43
2022-11-16T09:17:01.081Z,83.29
2022-11-16T09:19:28.815Z,83.40
2022-11-16T09:21:56.241Z,83.09
2022-11-16T09:24:24.041Z,83.11
2022-11-16T09:26:52.770Z,83.07
2022-11-16T09:29:20.524Z,83.08
2022-11-16T09:31:47.819Z,83.04
2022-11-16T09:34:15.673Z,83.94
2022-11-16T09:36:43.323Z,83.87
2022-11-16T09:39:30.540Z,84.12
2022-11-16T09:42:16.651Z,84.63
2022-11-16T09:44:58.923Z,84.51
2022-11-16T09:47:44.728Z,85.18
2022-11-16T09:50:31.707Z,86.21
2022-11-16T09:53:13.302Z,86.04
2022-11-16T09:55:47.537Z,85.92
2022-11-16T09:58:23.079Z,86.28
2022-11-16T10:00:59.029Z,87.10
2022-11-16T10:03:28.965Z,86.43
2022-11-16T10:06:01.586Z,87.45
2022-11-16T10:08:41.354Z,87.32
2022-11-16T10:11:31.558Z,86.25
2022-11-16T10:14:17.191Z,86.13
2022-11-16T10:16:49.903Z,87.07
2022-11-16T10:19:27.410Z,86.97
2022-11-16T10:22:01.959Z,86.83
2022-11-16T10:24:36.176Z,87.10
2022-11-16T10:27:27.757Z,87.34
2022-11-16T10:30:07.378Z,88.05
2022-11-16T10:32:39.940Z,88.20
2022-11-16T10:35:16.153Z,87.66
2022-11-16T10:37:48.230Z,86.84
2022-11-16T10:40:21.755Z,86.44
2022-11-16T10:42:58.996Z,86.57
2022-11-16T10:45:35.288Z,86.20
2022-11-16T10:48:14.814Z,86.17
2022-11-16T10:50:45.467Z,87.09
2022-11-16T10:53:14.223Z,87.30
2022-11-16T10:55:42.158Z,87.13
2022-11-16T10:58:10.161Z,86.80
2022-11-16T11:00:43.685Z,86.68
2022-11-16T11:03:12.690Z,86.56
2022-11-16T11:05:49.531Z,86.33
2022-11-16T11:08:26.867Z,86.16
2022-11-16T11:11:03.095Z,86.75
2022-11-16T11:13:35.818Z,86.29
2022-11-16T11:16:18.039Z,86.86
2022-11-16T11:18:47.523Z,86.43
2022-11-16T11:21:19.154Z,86.51
2022-11-16T11:23:49.295Z,85.67
2022-11-16T11:26:34.684Z,85.57
2022-11-16T11:29:15.834Z,85.49
2022-11-16T11:31:49.119Z,85.88
2022-11-16T11:34:21.833Z,86.23
2022-11-16T11:36:52.973Z,87.10
2022-11-16T11:39:39.281Z,86.94
2022-11-16T11:42:20.928Z,86.57
2022-11-16T11:44:56.487Z,87.12
2022-11-16T11:50:45.364Z,87.67
2022-11-16T11:53:24.125Z,87.00
2022-11-16T11:55:55.197Z,86.13
2022-11-16T11:58:26.814Z,85.74
2022-11-16T12:01:09.213Z,86.83
2022-11-16T12:03:50.158Z,86.26
2022-11-16T12:06:30.908Z,85.64
2022-11-16T12:09:13.000Z,86.01
2022-11-16T12:11:56.055Z,85.98
2022-11-16T12:14:35.153Z,86.79
2022-11-16T12:17:12.334Z,86.70
2022-11-16T12:19:55.121Z,86.95
2022-11-16T12:22:48.709Z,86.75
2022-11-16T12:25:25.320Z,86.19
2022-11-16T12:28:11.296Z,85.63
2022-11-16T12:30:49.666Z,85.60
2022-11-16T12:33:29.506Z,85.60
2022-11-16T12:36:02.174Z,85.08
2022-11-16T12:38:43.482Z,85.95
2022-11-16T12:41:40.975Z,86.20
2022-11-16T12:44:11.043Z,87.10
2022-11-16T12:46:50.381Z,86.67
2022-11-16T12:49:37.479Z,86.53
2022-11-16T12:52:22.205Z,87.36
2022-11-16T12:55:29.577Z,86.61
2022-11-16T12:58:11.029Z,87.00
2022-11-16T13:00:51.324Z,86.53
2022-11-16T13:03:23.795Z,85.36
2022-11-16T13:05:59.416Z,85.05
2022-11-16T13:08:40.955Z,85.20
2022-11-16T13:11:15.846Z,85.02
2022-11-16T13:13:49.603Z,84.98
2022-11-16T13:16:22.301Z,84.84
2022-11-16T13:18:51.412Z,84.78
2022-11-16T13:21:28.449Z,84.87
2022-11-16T13:24:16.712Z,84.05
2022-11-16T13:26:54.625Z,83.58
2022-11-16T13:29:32.075Z,83.25
2022-11-16T13:32:09.003Z,82.70
2022-11-16T13:34:39.516Z,82.27
2022-11-16T13:37:36.960Z,82.39
2022-11-16T13:40:29.903Z,82.44
2022-11-16T13:43:17.144Z,81.99
2022-11-16T13:45:54.428Z,81.91
2022-11-16T13:48:25.653Z,81.53
2022-11-16T13:50:57.118Z,82.01
2022-11-16T13:54:25.153Z,81.94
2022-11-16T13:56:25.614Z,82.22
2022-11-16T13:58:58.513Z,82.59
2022-11-16T14:01:46.346Z,83.46
2022-11-16T14:04:34.404Z,83.14
2022-11-16T14:07:02.003Z,83.53
2022-11-16T14:09:42.596Z,83.60
2022-11-16T14:12:55.931Z,83.61
2022-11-16T14:15:28.395Z,83.89
2022-11-16T14:17:59.299Z,84.30
2022-11-16T14:20:49.870Z,84.36
2022-11-16T14:23:34.969Z,83.54
2022-11-16T14:26:12.927Z,83.40
2022-11-16T14:28:50.422Z,82.46
2022-11-16T14:31:24.494Z,82.78
2022-11-16T14:33:53.860Z,83.11
2022-11-16T14:36:37.805Z,83.17
2022-11-16T14:39:33.588Z,83.20
2022-11-16T14:42:04.535Z,83.51
2022-11-16T14:44:37.892Z,83.14
2022-11-16T14:47:20.912Z,83.08
2022-11-16T14:49:48.984Z,83.54
2022-11-16T14:52:20.784Z,83.07
2022-11-16T14:54:53.644Z,83.40
2022-11-16T14:57:23.826Z,83.54
2022-11-16T15:00:08.754Z,82.99
2022-11-16T15:02:39.817Z,82.94
2022-11-16T15:05:07.991Z,82.98
2022-11-16T15:07:36.191Z,82.48
2022-11-16T15:10:14.235Z,82.81
2022-11-16T15:12:42.674Z,83.24
2022-11-16T15:15:15.898Z,83.09
2022-11-16T15:17:51.553Z,83.00
2022-11-16T15:20:21.284Z,83.04
2022-11-16T15:22:52.015Z,83.24
2022-11-16T15:25:30.497Z,83.26
2022-11-16T15:27:59.342Z,83.51
2022-11-16T15:30:31.110Z,83.43
2022-11-16T15:33:02.958Z,83.42
2022-11-16T15:35:32.591Z,83.59
2022-11-16T15:38:16.903Z,83.65
2022-11-16T15:40:50.369Z,83.55
2022-11-16T15:43:18.997Z,83.59
2022-11-16T15:45:47.529Z,83.08
2022-11-16T15:48:20.935Z,83.76
2022-11-16T15:51:05.281Z,83.80
2022-11-16T15:53:38.532Z,83.94
2022-11-16T15:56:09.265Z,83.79
2022-11-16T15:58:39.334Z,84.07
2022-11-16T16:01:07.580Z,85.07
2022-11-16T16:03:38.039Z,85.85
2022-11-16T16:06:06.516Z,85.71
2022-11-16T16:08:36.291Z,85.53
2022-11-16T16:11:10.326Z,85.84
2022-11-16T16:13:40.340Z,85.65
2022-11-16T16:16:26.669Z,86.16
2022-11-16T16:19:01.606Z,86.05
2022-11-16T16:21:42.710Z,85.32
2022-11-16T16:24:30.336Z,84.95
2022-11-16T16:26:58.184Z,85.11
2022-11-16T16:29:27.468Z,84.79
2022-11-16T16:31:55.659Z,84.91
2022-11-16T16:34:25.161Z,84.71
2022-11-16T16:36:52.623Z,84.65
2022-11-16T16:39:20.547Z,84.66
2022-11-16T16:41:48.110Z,84.76
2022-11-16T16:44:16.581Z,84.66
2022-11-16T16:46:44.217Z,84.90
2022-11-16T16:49:12.407Z,85.20
2022-11-16T16:51:41.260Z,85.10
2022-11-16T16:54:13.517Z,84.71
2022-11-16T16:56:41.040Z,84.80
2022-11-16T16:59:09.373Z,85.19
2022-11-16T17:01:36.854Z,85.46
2022-11-16T17:04:04.946Z,85.45
2022-11-16T17:06:32.447Z,85.54
2022-11-16T17:09:01.904Z,85.54
2022-11-16T17:11:29.416Z,85.54
2022-11-16T17:13:57.281Z,85.55
2022-11-16T17:16:25.210Z,85.58
2022-11-16T17:18:54.948Z,85.36
2022-11-16T17:21:22.492Z,85.77
2022-11-16T17:23:50.541Z,85.36
2022-11-16T17:26:19.644Z,84.87
2022-11-16T17:28:47.866Z,84.75
2022-11-16T17:31:15.624Z,84.30
2022-11-16T17:33:46.794Z,84.88
2022-11-16T17:36:14.701Z,84.02
2022-11-16T17:38:42.827Z,83.52
2022-11-16T17:41:11.875Z,83.37
2022-11-16T17:44:06.247Z,83.40
2022-11-16T17:46:34.004Z,83.51
2022-11-16T17:49:02.097Z,83.31
2022-11-16T17:51:29.808Z,83.56
2022-11-16T17:53:57.814Z,83.78
2022-11-16T17:56:26.213Z,83.91
2022-11-16T17:58:54.615Z,84.29
2022-11-16T18:01:23.851Z,85.43
2022-11-16T18:03:51.904Z,85.26
2022-11-16T18:06:21.181Z,86.09
2022-11-16T18:08:49.711Z,86.68
2022-11-16T18:11:18.748Z,87.07
2022-11-16T18:13:48.029Z,87.21
2022-11-16T18:16:17.060Z,86.97
2022-11-16T18:18:48.175Z,86.46
2022-11-16T18:21:20.799Z,86.64
2022-11-16T18:23:49.141Z,87.35
2022-11-16T18:26:18.765Z,87.34
2022-11-16T18:28:46.979Z,87.55
2022-11-16T18:31:16.454Z,87.83
2022-11-16T18:33:46.520Z,87.04
2022-11-16T18:36:14.021Z,86.75
2022-11-16T18:38:41.955Z,86.08
2022-11-16T18:41:16.967Z,85.41
2022-11-16T18:43:48.858Z,86.18
2022-11-16T18:46:16.507Z,85.82
2022-11-16T18:48:44.541Z,86.38
2022-11-16T18:51:14.573Z,86.64
2022-11-16T18:53:42.964Z,87.29
2022-11-16T18:56:10.424Z,87.48
2022-11-16T18:58:54.093Z,87.06
2022-11-16T19:01:23.555Z,87.99
2022-11-16T19:03:52.673Z,87.27
2022-11-16T19:06:22.808Z,87.20
2022-11-16T19:08:56.010Z,87.75
2022-11-16T19:11:24.414Z,87.31
2022-11-16T19:13:53.892Z,87.40
2022-11-16T19:16:21.936Z,86.97
2022-11-16T19:18:49.965Z,86.81
2022-11-16T19:21:18.533Z,85.96
2022-11-16T19:23:49.688Z,87.21
2022-11-16T19:26:19.388Z,87.43
2022-11-16T19:28:49.122Z,86.10
2022-11-16T19:31:18.922Z,85.91
2022-11-16T19:33:47.151Z,86.77
2022-11-16T19:36:16.740Z,86.05
2022-11-16T19:38:47.833Z,86.74
2022-11-16T19:41:17.281Z,87.36
2022-11-16T19:43:45.191Z,86.82
2022-11-16T19:46:15.139Z,86.27
2022-11-16T19:48:43.765Z,85.97
2022-11-16T19:51:13.499Z,86.04
2022-11-16T19:53:41.703Z,86.89
2022-11-16T19:56:12.770Z,86.53
2022-11-16T19:58:42.297Z,86.65
2022-11-16T20:01:12.024Z,87.56
2022-11-16T20:03:40.288Z,88.01
2022-11-16T20:06:09.734Z,88.16
2022-11-16T20:08:39.333Z,87.50
2022-11-16T20:11:16.503Z,87.55
2022-11-16T20:13:44.650Z,87.59
2022-11-16T20:16:15.936Z,86.54
2022-11-16T20:18:44.490Z,85.88
2022-11-16T20:21:16.796Z,85.19
2022-11-16T20:23:45.577Z,85.11
2022-11-16T20:26:15.306Z,85.41
2022-11-16T20:28:44.720Z,85.22
2022-11-16T20:31:14.870Z,86.32
2022-11-16T20:33:49.609Z,86.01
2022-11-16T20:36:17.077Z,85.97
2022-11-16T20:38:45.167Z,85.76
2022-11-16T20:41:16.021Z,85.86
2022-11-16T20:43:45.359Z,86.22
2022-11-16T20:46:14.641Z,86.59
2022-11-16T20:48:43.899Z,87.34
2022-11-16T20:51:14.041Z,87.36
2022-11-16T20:53:41.881Z,87.41
2022-11-16T20:56:10.964Z,87.54
2022-11-16T20:58:40.652Z,87.52
2022-11-16T21:01:10.745Z,87.55
2022-11-16T21:03:38.849Z,87.80
2022-11-16T21:06:07.166Z,87.01
2022-11-16T21:08:35.825Z,87.17
2022-11-16T21:11:10.236Z,87.91
2022-11-16T21:13:39.770Z,88.38
2022-11-16T21:16:09.769Z,87.86
2022-11-16T21:18:40.770Z,88.42
2022-11-16T21:21:10.861Z,88.22
2022-11-16T21:23:39.898Z,88.81
2022-11-16T21:26:11.043Z,87.93
2022-11-16T21:28:41.709Z,88.33
2022-11-16T21:31:12.103Z,88.50
2022-11-16T21:33:40.467Z,87.88
2022-11-16T21:36:11.010Z,87.41
2022-11-16T21:38:39.112Z,87.81
2022-11-16T21:41:07.450Z,89.35
2022-11-16T21:43:36.314Z,88.82
2022-11-16T21:46:07.645Z,87.60
2022-11-16T21:48:36.458Z,88.16
2022-11-16T21:51:05.753Z,88.83
2022-11-16T21:53:34.409Z,88.83
2022-11-16T21:56:03.192Z,87.56
2022-11-16T21:58:31.622Z,88.27
2022-11-16T22:01:00.521Z,88.61
2022-11-16T22:03:31.592Z,88.17
2022-11-16T22:06:00.992Z,87.79
2022-11-16T22:08:28.861Z,87.92
2022-11-16T22:10:56.313Z,88.00
2022-11-16T22:13:24.215Z,88.18
2022-11-16T22:15:51.617Z,88.76
2022-11-16T22:18:19.127Z,88.91
2022-11-16T22:20:49.787Z,88.28
2022-11-16T22:23:21.532Z,87.45
2022-11-16T22:25:50.735Z,86.76
2022-11-16T22:28:20.963Z,86.64
2022-11-16T22:30:51.984Z,87.38
2022-11-16T22:33:19.836Z,87.20
2022-11-16T22:35:49.040Z,86.84
2022-11-16T22:38:16.553Z,86.59
2022-11-16T22:40:49.202Z,87.25
2022-11-16T22:43:16.734Z,87.15
2022-11-16T22:45:44.481Z,88.30
2022-11-16T22:48:11.989Z,87.96
2022-11-16T22:50:39.782Z,88.36
2022-11-16T22:53:08.533Z,88.06
2022-11-16T22:55:37.134Z,87.69
2022-11-16T22:58:05.152Z,88.13
2022-11-16T23:00:37.531Z,88.18
2022-11-16T23:03:08.150Z,88.62
2022-11-16T23:05:36.032Z,88.69
2022-11-16T23:08:03.836Z,88.26
2022-11-16T23:10:33.121Z,86.96
2022-11-16T23:13:00.633Z,87.99
2022-11-16T23:15:28.740Z,87.46
2022-11-16T23:17:56.153Z,88.33
2022-11-16T23:20:24.066Z,87.82
2022-11-16T23:22:51.347Z,87.63
2022-11-16T23:25:19.405Z,88.15
2022-11-16T23:27:55.601Z,88.17
2022-11-16T23:30:25.503Z,88.15
2022-11-16T23:32:53.271Z,87.76
2022-11-16T23:35:21.411Z,87.94
2022-11-16T23:37:55.576Z,87.97
2022-11-16T23:40:25.412Z,88.37
2022-11-16T23:42:55.032Z,87.62
2022-11-16T23:45:22.861Z,87.80
2022-11-16T23:47:50.316Z,87.48
2022-11-16T23:50:18.299Z,88.75
2022-11-16T23:52:45.727Z,88.13
2022-11-16T23:55:13.569Z,87.28
2022-11-16T23:57:41.176Z,87.28
